Time,TemperatureF,DewpointF,PressureIn,WindDirection,WindDirectionDegrees,WindSpeedMPH,WindSpeedGustMPH,Humidity,HourlyPrecipIn,Conditions,Clouds,dailyrainin,SolarRadiationWatts/m^2,SoftwareType,DateUTC
2013-04-22 00:14:00,51.9,12.0,29.79,NNW,344,0.0,-999.0,20,-99.99,,,0.00,0,weatherlink.com 1.10,2013-04-22 06:14:00,
2013-04-22 00:29:00,50.3,10.0,29.79,NNW,344,0.0,-999.0,20,-99.99,,,0.00,0,weatherlink.com 1.10,2013-04-22 06:29:00,
2013-04-22 00:44:00,49.1,11.0,29.78,NNW,344,0.0,-999.0,21,-99.99,,,0.00,0,weatherlink.com 1.10,2013-04-22 06:44:00,
2013-04-22 00:59:00,51.4,12.0,29.78,NNW,346,1.0,-999.0,21,-99.99,,,0.00,0,weatherlink.com 1.10,2013-04-22 06:59:00,
2013-04-22 01:14:00,52.8,13.0,29.77,NNW,346,0.0,-999.0,20,-99.99,,,0.00,0,weatherlink.com 1.10,2013-04-22 07:14:00,
2013-04-22 01:29:00,52.8,13.0,29.77,NNW,332,0.0,-999.0,20,-99.99,,,0.00,0,weatherlink.com 1.10,2013-04-22 07:29:00,
2013-04-22 01:44:00,52.4,13.0,29.77,SSW,211,0.0,-999.0,21,-99.99,,,0.00,0,weatherlink.com 1.10,2013-04-22 07:44:00,
2013-04-22 01:59:00,51.8,13.0,29.77,SSW,210,0.0,-999.0,21,-99.99,,,0.00,0,weatherlink.com 1.10,2013-04-22 07:59:00,
2013-04-22 02:14:00,51.2,13.0,29.76,West,267,0.0,-999.0,22,-99.99,,,0.00,0,weatherlink.com 1.10,2013-04-22 08:14:00,
2013-04-22 02:29:00,50.1,12.0,29.76,SE,129,0.0,-999.0,22,-99.99,,,0.00,0,weatherlink.com 1.10,2013-04-22 08:29:00,
2013-04-22 02:44:00,48.9,12.0,29.76,SE,128,0.0,-999.0,23,-99.99,,,0.00,0,weatherlink.com 1.10,2013-04-22 08:44:00,
2013-04-22 03:00:00,48.2,14.0,29.76,WNW,282,0.0,-999.0,25,-99.99,,,0.00,0,weatherlink.com 1.10,2013-04-22 09:00:00,
2013-04-22 03:15:00,47.2,14.0,29.76,WNW,282,0.0,-999.0,26,-99.99,,,0.00,0,weatherlink.com 1.10,2013-04-22 09:15:00,
2013-04-22 03:30:00,46.5,14.0,29.75,WNW,282,0.0,-999.0,27,-99.99,,,0.00,0,weatherlink.com 1.10,2013-04-22 09:30:00,
2013-04-22 03:45:00,46.0,14.0,29.76,WNW,283,0.0,-999.0,27,-99.99,,,0.00,0,weatherlink.com 1.10,2013-04-22 09:45:00,
2013-04-22 04:00:00,45.7,13.0,29.75,WNW,284,0.0,-999.0,27,-99.99,,,0.00,0,weatherlink.com 1.10,2013-04-22 10:00:00,
2013-04-22 04:15:00,46.0,13.0,29.76,WNW,284,0.0,-999.0,26,-99.99,,,0.00,0,weatherlink.com 1.10,2013-04-22 10:15:00,
2013-04-22 04:30:00,46.5,14.0,29.76,NW,310,0.0,-999.0,27,-99.99,,,0.00,0,weatherlink.com 1.10,2013-04-22 10:30:00,
2013-04-22 04:45:00,46.9,14.0,29.76,NW,313,0.0,-999.0,27,-99.99,,,0.00,0,weatherlink.com 1.10,2013-04-22 10:45:00,
2013-04-22 05:00:00,46.4,14.0,29.75,NW,313,0.0,-999.0,27,-99.99,,,0.00,0,weatherlink.com 1.10,2013-04-22 11:00:00,
2013-04-22 05:15:00,46.1,13.0,29.75,NW,313,0.0,-999.0,26,-99.99,,,0.00,0,weatherlink.com 1.10,2013-04-22 11:15:00,
2013-04-22 05:30:00,46.0,14.0,29.75,NW,304,0.0,-999.0,27,-99.99,,,0.00,0,weatherlink.com 1.10,2013-04-22 11:30:00,
2013-04-22 05:45:00,46.0,14.0,29.75,WNW,299,0.0,-999.0,27,-99.99,,,0.00,0,weatherlink.com 1.10,2013-04-22 11:45:00,
2013-04-22 06:00:00,46.9,13.0,29.75,West,263,0.0,-999.0,26,-99.99,,,0.00,0,weatherlink.com 1.10,2013-04-22 12:00:00,
2013-04-22 06:15:00,46.5,13.0,29.76,West,266,0.0,-999.0,26,-99.99,,,0.00,0,weatherlink.com 1.10,2013-04-22 12:15:00,
2013-04-22 06:30:00,45.7,13.0,29.76,West,267,0.0,-999.0,27,-99.99,,,0.00,5,weatherlink.com 1.10,2013-04-22 12:30:00,
2013-04-22 06:45:00,45.0,14.0,29.76,West,267,0.0,-999.0,28,-99.99,,,0.00,11,weatherlink.com 1.10,2013-04-22 12:45:00,
2013-04-22 07:00:00,45.1,14.0,29.77,West,270,0.0,-999.0,29,-99.99,,,0.00,16,weatherlink.com 1.10,2013-04-22 13:00:00,
2013-04-22 07:15:00,47.3,15.0,29.77,WSW,257,1.0,-999.0,27,-99.99,,,0.00,25,weatherlink.com 1.10,2013-04-22 13:15:00,
2013-04-22 07:30:00,48.7,15.0,29.77,WSW,250,0.0,-999.0,26,-99.99,,,0.00,35,weatherlink.com 1.10,2013-04-22 13:30:00,
2013-04-22 07:45:00,51.2,16.0,29.77,SW,229,0.0,-999.0,25,-99.99,,,0.00,47,weatherlink.com 1.10,2013-04-22 13:45:00,
2013-04-22 08:00:00,52.8,17.0,29.77,SW,234,2.0,-999.0,24,-99.99,,,0.00,54,weatherlink.com 1.10,2013-04-22 14:00:00,
2013-04-22 08:15:00,54.3,17.0,29.77,WSW,242,4.0,-999.0,23,-99.99,,,0.00,316,weatherlink.com 1.10,2013-04-22 14:15:00,
2013-04-22 08:30:00,56.6,17.0,29.77,South,186,0.0,-999.0,21,-99.99,,,0.00,369,weatherlink.com 1.10,2013-04-22 14:30:00,
2013-04-22 08:45:00,57.9,17.0,29.77,SSW,205,0.0,-999.0,20,-99.99,,,0.00,420,weatherlink.com 1.10,2013-04-22 14:45:00,
2013-04-22 09:00:00,59.2,17.0,29.77,SW,226,3.0,-999.0,19,-99.99,,,0.00,476,weatherlink.com 1.10,2013-04-22 15:00:00,
2013-04-22 09:15:00,60.7,17.0,29.76,WSW,242,6.0,-999.0,18,-99.99,,,0.00,524,weatherlink.com 1.10,2013-04-22 15:15:00,
2013-04-22 09:30:00,62.3,18.0,29.76,SSW,198,6.0,-999.0,18,-99.99,,,0.00,575,weatherlink.com 1.10,2013-04-22 15:30:00,
2013-04-22 09:46:00,63.3,18.0,29.76,South,173,8.0,-999.0,17,-99.99,,,0.00,621,weatherlink.com 1.10,2013-04-22 15:46:00,
2013-04-22 10:01:00,64.1,17.0,29.75,SW,233,7.0,-999.0,16,-99.99,,,0.00,663,weatherlink.com 1.10,2013-04-22 16:01:00,
2013-04-22 10:16:00,65.6,18.0,29.75,SSE,160,4.0,-999.0,16,-99.99,,,0.00,707,weatherlink.com 1.10,2013-04-22 16:16:00,
2013-04-22 10:31:00,67.0,18.0,29.74,SSW,192,2.0,-999.0,15,-99.99,,,0.00,747,weatherlink.com 1.10,2013-04-22 16:31:00,
2013-04-22 10:46:00,68.9,16.0,29.74,SSW,213,4.0,-999.0,13,-99.99,,,0.00,780,weatherlink.com 1.10,2013-04-22 16:46:00,
2013-04-22 11:01:00,69.8,17.0,29.73,SSE,167,4.0,-999.0,13,-99.99,,,0.00,814,weatherlink.com 1.10,2013-04-22 17:01:00,
2013-04-22 11:16:00,71.9,14.0,29.72,NNW,335,0.0,-999.0,11,-99.99,,,0.00,837,weatherlink.com 1.10,2013-04-22 17:16:00,
2013-04-22 11:31:00,74.5,14.0,29.71,West,262,5.0,-999.0,10,-99.99,,,0.00,872,weatherlink.com 1.10,2013-04-22 17:31:00,
2013-04-22 11:46:00,78.4,12.0,29.70,West,280,0.0,-999.0,8,-99.99,,,0.00,891,weatherlink.com 1.10,2013-04-22 17:46:00,
2013-04-22 12:01:00,79.3,13.0,29.69,SW,214,0.0,-999.0,8,-99.99,,,0.00,909,weatherlink.com 1.10,2013-04-22 18:01:00,
2013-04-22 12:16:00,81.2,11.0,29.67,NW,325,4.0,-999.0,7,-99.99,,,0.00,928,weatherlink.com 1.10,2013-04-22 18:16:00,
2013-04-22 12:31:00,79.5,13.0,29.66,NNW,327,2.0,-999.0,8,-99.99,,,0.00,932,weatherlink.com 1.10,2013-04-22 18:31:00,
2013-04-22 12:46:00,82.3,12.0,29.64,NW,313,12.0,-999.0,7,-99.99,,,0.00,942,weatherlink.com 1.10,2013-04-22 18:46:00,
2013-04-22 13:01:00,80.5,11.0,29.64,West,269,8.0,-999.0,7,-99.99,,,0.00,946,weatherlink.com 1.10,2013-04-22 19:01:00,
2013-04-22 13:16:00,83.0,13.0,29.63,WNW,292,10.0,-999.0,7,-99.99,,,0.00,947,weatherlink.com 1.10,2013-04-22 19:16:00,
2013-04-22 13:32:00,83.1,9.0,29.62,NW,306,4.0,-999.0,6,-99.99,,,0.00,940,weatherlink.com 1.10,2013-04-22 19:32:00,
2013-04-22 13:47:00,83.7,10.0,29.61,NNW,338,5.0,-999.0,6,-99.99,,,0.00,935,weatherlink.com 1.10,2013-04-22 19:47:00,
2013-04-22 14:02:00,84.8,11.0,29.60,NW,325,4.0,-999.0,6,-99.99,,,0.00,919,weatherlink.com 1.10,2013-04-22 20:02:00,
2013-04-22 14:17:00,83.2,9.0,29.58,WNW,302,11.0,-999.0,6,-99.99,,,0.00,907,weatherlink.com 1.10,2013-04-22 20:17:00,
2013-04-22 14:32:00,84.2,10.0,29.58,WSW,255,9.0,-999.0,6,-99.99,,,0.00,881,weatherlink.com 1.10,2013-04-22 20:32:00,
2013-04-22 14:47:00,84.5,10.0,29.57,NNW,328,8.0,-999.0,6,-99.99,,,0.00,858,weatherlink.com 1.10,2013-04-22 20:47:00,
2013-04-22 15:02:00,85.3,11.0,29.55,WNW,302,4.0,-999.0,6,-99.99,,,0.00,831,weatherlink.com 1.10,2013-04-22 21:02:00,
2013-04-22 15:17:00,84.5,10.0,29.54,West,259,10.0,-999.0,6,-99.99,,,0.00,812,weatherlink.com 1.10,2013-04-22 21:17:00,
2013-04-22 15:32:00,84.6,10.0,29.53,NW,324,5.0,-999.0,6,-99.99,,,0.00,63,weatherlink.com 1.10,2013-04-22 21:32:00,
2013-04-22 15:47:00,84.0,10.0,29.52,WNW,283,12.0,-999.0,6,-99.99,,,0.00,53,weatherlink.com 1.10,2013-04-22 21:47:00,
2013-04-22 16:02:00,83.2,5.0,29.51,West,267,10.0,-999.0,5,-99.99,,,0.00,42,weatherlink.com 1.10,2013-04-22 22:02:00,
2013-04-22 16:17:00,83.5,10.0,29.50,WSW,258,20.0,-999.0,6,-99.99,,,0.00,40,weatherlink.com 1.10,2013-04-22 22:17:00,
2013-04-22 16:32:00,82.0,8.0,29.49,NW,313,7.0,-999.0,6,-99.99,,,0.00,37,weatherlink.com 1.10,2013-04-22 22:32:00,
2013-04-22 16:47:00,82.3,9.0,29.49,WNW,303,6.0,-999.0,6,-99.99,,,0.00,33,weatherlink.com 1.10,2013-04-22 22:47:00,
2013-04-22 17:02:00,81.7,4.0,29.48,West,271,9.0,-999.0,5,-99.99,,,0.00,32,weatherlink.com 1.10,2013-04-22 23:02:00,
2013-04-22 17:17:00,80.9,8.0,29.48,NW,317,10.0,-999.0,6,-99.99,,,0.00,28,weatherlink.com 1.10,2013-04-22 23:17:00,
2013-04-22 17:32:00,80.5,3.0,29.48,WNW,294,5.0,-999.0,5,-99.99,,,0.00,26,weatherlink.com 1.10,2013-04-22 23:32:00,
2013-04-22 17:47:00,80.0,7.0,29.47,West,273,8.0,-999.0,6,-99.99,,,0.00,25,weatherlink.com 1.10,2013-04-22 23:47:00,
2013-04-22 18:02:00,79.3,2.0,29.48,WNW,288,16.0,-999.0,5,-99.99,,,0.00,23,weatherlink.com 1.10,2013-04-23 00:02:00,
2013-04-22 18:17:00,78.4,6.0,29.47,WNW,302,5.0,-999.0,6,-99.99,,,0.00,21,weatherlink.com 1.10,2013-04-23 00:17:00,
2013-04-22 18:32:00,77.8,5.0,29.47,West,273,7.0,-999.0,6,-99.99,,,0.00,18,weatherlink.com 1.10,2013-04-23 00:32:00,
2013-04-22 18:47:00,76.9,5.0,29.47,WNW,285,4.0,-999.0,6,-99.99,,,0.00,16,weatherlink.com 1.10,2013-04-23 00:47:00,
2013-04-22 19:02:00,76.1,7.0,29.47,WNW,298,5.0,-999.0,7,-99.99,,,0.00,14,weatherlink.com 1.10,2013-04-23 01:02:00,
2013-04-22 19:17:00,75.3,7.0,29.47,West,275,5.0,-999.0,7,-99.99,,,0.00,11,weatherlink.com 1.10,2013-04-23 01:17:00,
2013-04-22 19:32:00,74.2,9.0,29.47,WNW,294,2.0,-999.0,8,-99.99,,,0.00,5,weatherlink.com 1.10,2013-04-23 01:32:00,
2013-04-22 19:47:00,73.1,8.0,29.47,WNW,301,0.0,-999.0,8,-99.99,,,0.00,0,weatherlink.com 1.10,2013-04-23 01:47:00,
2013-04-22 20:02:00,71.5,7.0,29.47,WNW,299,1.0,-999.0,8,-99.99,,,0.00,0,weatherlink.com 1.10,2013-04-23 02:02:00,
2013-04-22 20:17:00,69.9,8.0,29.47,WNW,299,0.0,-999.0,9,-99.99,,,0.00,0,weatherlink.com 1.10,2013-04-23 02:17:00,
2013-04-22 20:32:00,68.3,7.0,29.48,WNW,297,1.0,-999.0,9,-99.99,,,0.00,0,weatherlink.com 1.10,2013-04-23 02:32:00,
2013-04-22 20:47:00,67.2,9.0,29.48,West,281,2.0,-999.0,10,-99.99,,,0.00,0,weatherlink.com 1.10,2013-04-23 02:47:00,
2013-04-22 21:02:00,66.7,8.0,29.49,West,279,0.0,-999.0,10,-99.99,,,0.00,0,weatherlink.com 1.10,2013-04-23 03:02:00,
2013-04-22 21:17:00,65.6,7.0,29.49,West,278,0.0,-999.0,10,-99.99,,,0.00,0,weatherlink.com 1.10,2013-04-23 03:17:00,
2013-04-22 21:32:00,65.0,7.0,29.50,West,279,6.0,-999.0,10,-99.99,,,0.00,0,weatherlink.com 1.10,2013-04-23 03:32:00,
2013-04-22 21:47:00,65.0,7.0,29.50,WNW,284,1.0,-999.0,10,-99.99,,,0.00,0,weatherlink.com 1.10,2013-04-23 03:47:00,
2013-04-22 22:02:00,64.6,7.0,29.51,West,277,3.0,-999.0,10,-99.99,,,0.00,0,weatherlink.com 1.10,2013-04-23 04:02:00,
2013-04-22 22:17:00,63.6,8.0,29.51,West,276,1.0,-999.0,11,-99.99,,,0.00,0,weatherlink.com 1.10,2013-04-23 04:17:00,
2013-04-22 22:32:00,63.0,7.0,29.51,WNW,288,7.0,-999.0,11,-99.99,,,0.00,0,weatherlink.com 1.10,2013-04-23 04:32:00,
2013-04-22 22:47:00,62.6,9.0,29.51,West,275,1.0,-999.0,12,-99.99,,,0.00,0,weatherlink.com 1.10,2013-04-23 04:47:00,
2013-04-22 23:02:00,62.7,11.0,29.51,NW,306,1.0,-999.0,13,-99.99,,,0.00,0,weatherlink.com 1.10,2013-04-23 05:02:00,
2013-04-22 23:17:00,62.3,11.0,29.50,West,269,7.0,-999.0,13,-99.99,,,0.00,0,weatherlink.com 1.10,2013-04-23 05:17:00,
2013-04-22 23:32:00,62.0,12.0,29.50,NW,308,7.0,-999.0,14,-99.99,,,0.00,0,weatherlink.com 1.10,2013-04-23 05:32:00,
2013-04-22 23:47:00,61.5,12.0,29.50,West,270,5.0,-999.0,14,-99.99,,,0.00,0,weatherlink.com 1.10,2013-04-23 05:47:00,